EST,Max TemperatureF,Mean TemperatureF,Min TemperatureF,Max Dew PointF,MeanDew PointF,Min DewpointF,Max Humidity, Mean Humidity, Min Humidity, Max Sea Level PressureIn, Mean Sea Level PressureIn, Min Sea Level PressureIn, Max VisibilityMiles, Mean VisibilityMiles, Min VisibilityMiles, Max Wind SpeedMPH, Mean Wind SpeedMPH, Max Gust SpeedMPH,PrecipitationIn, CloudCover, Events, WindDirDegrees
2012-12-1,75,64,52,56,53,48,100,71,41,30.35,30.30,30.27,10,9,2,9,3,24,0.00,6,,96
2012-12-2,79,66,52,58,54,51,93,68,43,30.35,30.29,30.25,10,7,0,7,1,9,0.00,2,Fog,111
2012-12-3,76,63,50,63,55,50,100,77,54,30.33,30.29,30.24,10,3,0,8,1,13,0.00,2,Fog,122
2012-12-4,77,64,51,63,55,50,100,77,53,30.35,30.28,30.24,10,5,0,6,1,10,0.00,6,Fog,112
2012-12-5,78,62,46,56,48,45,100,68,35,30.25,30.19,30.09,10,5,0,6,1,10,0.00,0,Fog,65
2012-12-6,70,62,54,61,56,52,93,76,59,30.13,30.08,30.06,10,9,2,10,3,16,0.01,8,Rain,60
2012-12-7,66,58,49,56,52,48,100,86,72,30.10,30.04,29.99,10,4,0,10,2,14,0.00,4,Fog,4
2012-12-8,75,61,47,60,53,46,100,79,57,30.09,30.04,29.99,10,3,0,8,2,15,0.00,4,Fog,129
2012-12-9,75,67,58,65,61,57,100,87,73,30.12,30.06,30.00,10,4,0,6,1,9,0.00,6,Fog,258
2012-12-10,79,66,53,65,58,52,100,72,43,29.99,29.90,29.80,10,6,0,14,5,17,0.00,4,Fog,199
2012-12-11,69,62,54,65,60,47,93,86,78,30.11,29.94,29.82,10,8,5,14,4,17,0.02,7,Rain,296
2012-12-12,55,52,49,52,49,45,96,87,77,30.20,30.13,30.08,10,5,1,12,4,15,0.62,8,Rain,357
2012-12-13,50,48,45,47,44,42,93,87,80,30.32,30.25,30.16,10,9,4,14,5,22,0.01,8,,13
2012-12-14,65,53,40,46,42,39,96,70,44,30.37,30.27,30.19,10,6,1,12,2,16,0.00,2,,29
2012-12-15,65,54,43,54,48,41,100,80,60,30.22,30.14,30.09,10,6,0,8,2,9,0.00,3,Fog,54
2012-12-16,78,66,54,60,56,53,100,75,50,30.10,30.03,29.91,10,4,0,14,4,18,0.00,4,Fog,166
2012-12-17,74,67,60,64,60,57,97,85,73,29.94,29.87,29.80,10,8,2,29,6,37,0.31,5,Rain,233
2012-12-18,69,54,39,59,48,29,93,59,24,30.05,29.90,29.81,10,8,1,20,6,25,0.00,3,,270
2012-12-19,73,54,34,44,37,31,92,57,22,30.14,30.08,30.05,10,10,2,8,1,12,0.00,0,,243
2012-12-20,79,59,38,67,54,37,93,73,52,30.10,29.90,29.76,10,8,2,31,9,41,0.53,4,Rain,203
2012-12-21,54,48,41,37,23,17,66,45,24,30.15,30.05,29.96,10,10,10,24,13,35,0.00,0,,281
2012-12-22,57,44,31,31,21,15,82,52,21,30.28,30.22,30.16,10,10,9,17,6,23,0.00,0,,284
2012-12-23,64,46,27,37,28,20,92,56,19,30.27,30.19,30.14,10,10,10,9,3,14,0.00,0,,251
2012-12-24,68,53,38,58,51,35,93,73,52,30.12,29.99,29.92,10,8,1,18,4,24,0.27,5,Rain,184
2012-12-25,62,59,55,60,58,54,100,95,90,30.01,29.95,29.84,10,3,0,12,4,15,0.38,7,Fog-Rain,102
2012-12-26,67,55,42,63,48,30,90,71,51,29.98,29.75,29.61,10,8,1,25,16,36,0.50,7,Rain-Thunderstorm,239
2012-12-27,56,45,33,37,33,30,92,68,43,30.10,30.05,29.98,10,9,2,18,6,26,0.00,1,,282
2012-12-28,56,43,30,47,34,28,100,76,51,30.14,30.06,29.90,10,6,1,8,2,12,0.00,2,,115
2012-12-29,60,51,41,58,46,27,100,77,53,30.21,29.90,29.74,10,8,2,25,12,37,0.32,7,Rain,269
2012-12-30,54,42,29,33,27,25,92,62,32,30.43,30.36,30.22,10,10,8,17,5,24,0.00,0,,318
2012-12-31,65,47,28,48,37,27,93,71,48,30.42,30.34,30.23,10,8,3,10,2,14,0.00,1,,193